Bethany, Kentucky
Current Conditions -  °F | °C
As of 3:53 AM on Sunday 26 Oct 2014 (Local Time) from KJKL Reporting Station
Clear Clear  
Wind Chill: 59°   Ceiling: Unl
Heat Index: 59°   Visibility: 10mi
Dew Point: 53°   Wind: 3mph
Humidity: 81%   Direction: NA
Pressure: 29.96"   Gusts: NA
Location:  37.65°N, 83.47°W
Report Text: KJKL 260753Z AUTO VRB03KT 10SM CLR 15/12 A2996 RMK AO2 SLP137 T01500117
Loading
Personal Weather Stations






























Interactive Weather Map New forecast layout! Learn more

10-Day Weather Forecast

Advertisements
Track Severe Weather on mobile